X  Tanca Dades meteorològiques de l'aviació METAR     LIPX Verona-Villafranca Valerio Catullo Airport
Temperatura
68°F Temperatura
59°F Rosada
73% Humitat



Vent
5 MPH
8 KM/H
2 M/S
4 NUS



280°
O
Condicions actuals

Força ennuvolat Força ennuvolat
Pressió 1015.92 (hPa) - 30 (inHg)
Visibilitat 6 (milla) - 9.7 (km)
Aeroport
Codi aeroport LIPX

Ubicació: Verona-Villafranca Valerio Catullo Airport
Distància: 0 (mi)

Metar:
LIPX 081320Z 28004KT 260V330 9999 BKN050 20/15 Q1016

Temps: 08-05-2024 13:20 CEST